Terminal Aerodrome Forecast
Issued by NWS

Home | Current Version | Previous Version | Graphics & Text | Print | Product List | Glossary On
Versions: 1 2 3 4 5 6 7 8 9 10 11 12 13 14 15 16 17 18
000
FTUS43 KICT 162112 AAA
TAFCNU
TAF AMD
KCNU 162112Z 1621/1718 32010KT P6SM SKC
     FM162300 36007KT P6SM FEW250
     FM170600 02008KT P6SM BKN150=

USA.gov is the U.S. government's official web portal to all federal, state and local government web resources and services.